Etusivu
METAR-TAF:

METAR-TAF

Lentoasemat :

Sveg, Ruotsi

Leveyspiiri: 62-02-52N, Pituuspiiri: 014-25-22E, korkeus merenpinnasta: 359 m

Tämänhetkinen sää

Tämä raportti tehtiin 33 minuuttia sitten, kello 20.20 UTC
Tuuli 2 kn lännestä/lounaasta
Lämpötila 12°C
Kosteus 71%
Ilmanpaine 1018 hPa
Näkyvyys 10 km tai enemmän

METAR: ESND 262020Z AUTO 25002KT 9999 FEW047/// OVC076/// 12/07 Q1018

Aika: 22:53 (20:53 UTC)


TAF: puuttuu

Säähavainnot ja -ennusteet yli 4000 lentoasemalta (METAR- ja TAF-raportit).

Käytössä olevat sääasemat on merkitty karttaan keltaisilla ja punaisilla pisteillä.

Aseta hiiri pisteen päälle nähdäksesi sääaseman nimen.

Klikkaa sitten nähdäksesi säähavainnot ja -ennusteet.

Kartan vaihtaminen: klikkaa mustalla rastilla varustettuja vihreitä pisteitä, niin voit zoomata sisään; viivalla varustettua vihreää pistettä, niin voit zoomata ulos tai vihreitä nuolia, niin pääset viereisille kartoille.


METAR-TAF: